Time;durP1;ratioP1;P1;durP2;ratioP2;P2;SDS_P1;SDS_P2;PMS_P1;PMS_P2;Temp;Humidity;BMP_temperature;BMP_pressure;BME280_temperature;BME280_humidity;BME280_pressure;Samples;Min_cycle;Max_cycle;Signal;HPM_P1;HPM_P2
2022/04/13 00:02:01;;;;;;;12.40;7.60;;;13.30;99.90;;;;;;5095771;27;20036;-83
2022/04/13 00:04:26;;;;;;;9.30;6.72;;;13.30;99.90;;;;;;5094290;27;20044;-84
2022/04/13 00:06:52;;;;;;;8.15;7.30;;;13.20;99.90;;;;;;5078988;28;20055;-83
2022/04/13 00:09:18;;;;;;;11.40;7.00;;;13.10;99.90;;;;;;5110097;28;20044;-84
2022/04/13 00:11:44;;;;;;;11.43;8.43;;;13.00;99.90;;;;;;5099201;28;20389;-84
2022/04/13 00:14:10;;;;;;;9.20;7.72;;;13.00;99.90;;;;;;5101436;28;20036;-84
2022/04/13 00:16:36;;;;;;;11.82;7.93;;;13.00;99.90;;;;;;5074065;28;20055;-83
2022/04/13 00:19:02;;;;;;;8.15;7.10;;;13.00;99.90;;;;;;5104864;28;20039;-84
2022/04/13 00:21:28;;;;;;;12.40;8.75;;;13.00;99.90;;;;;;5111244;28;20036;-83
2022/04/13 00:23:53;;;;;;;18.67;8.77;;;12.90;99.90;;;;;;5094419;28;20035;-84
2022/04/13 00:26:19;;;;;;;17.45;8.32;;;12.90;99.90;;;;;;5111391;27;20501;-83
2022/04/13 00:28:44;;;;;;;10.27;7.35;;;12.80;99.90;;;;;;5109967;27;20044;-84
2022/04/13 00:31:10;;;;;;;8.55;7.18;;;12.90;99.90;;;;;;5115415;27;20039;-83
2022/04/13 00:33:36;;;;;;;11.73;8.68;;;12.80;99.90;;;;;;5111854;27;20062;-84
2022/04/13 00:36:01;;;;;;;10.40;8.82;;;12.70;99.90;;;;;;5100635;27;20170;-84
2022/04/13 00:38:27;;;;;;;12.02;8.45;;;12.70;99.90;;;;;;5091739;28;20036;-85
2022/04/13 00:40:52;;;;;;;17.33;9.73;;;12.70;99.90;;;;;;5094080;28;20073;-85
2022/04/13 00:43:18;;;;;;;12.50;9.55;;;12.70;99.90;;;;;;5118120;27;20459;-86
2022/04/13 00:45:45;;;;;;;11.15;8.57;;;12.70;99.90;;;;;;5113242;28;20126;-83
2022/04/13 00:48:35;;;;;;;12.38;8.75;;;12.70;99.90;;;;;;5109025;27;20055;-82
2022/04/13 00:51:01;;;;;;;17.17;9.32;;;12.70;99.90;;;;;;5110732;28;20048;-83
2022/04/13 00:53:27;;;;;;;14.48;9.38;;;12.60;99.90;;;;;;5108887;28;20043;-83
2022/04/13 00:55:58;;;;;;;14.82;9.27;;;12.50;99.90;;;;;;5102246;27;20399;-83
2022/04/13 00:58:29;;;;;;;15.98;8.82;;;12.50;99.90;;;;;;5103730;27;20039;-82
2022/04/13 01:00:55;;;;;;;;;;;12.50;99.90;;;;;;5110183;28;20043;-82
2022/04/13 01:03:25;;;;;;;14.50;9.63;;;12.50;99.90;;;;;;5101403;28;19919;-83
2022/04/13 01:05:51;;;;;;;;;;;12.50;99.90;;;;;;5103805;28;20106;-83
2022/04/13 01:08:18;;;;;;;12.30;9.95;;;12.50;99.90;;;;;;5102244;27;19927;-83
2022/04/13 01:10:49;;;;;;;14.98;10.30;;;12.40;99.90;;;;;;5104109;28;20082;-83
2022/04/13 01:13:16;;;;;;;15.30;10.50;;;12.40;99.90;;;;;;5110208;27;20043;-83
2022/04/13 01:15:42;;;;;;;16.75;9.10;;;12.40;99.90;;;;;;5110137;28;20119;-82
2022/04/13 01:18:09;;;;;;;18.42;10.98;;;12.40;99.90;;;;;;5095312;28;20713;-83
2022/04/13 01:20:39;;;;;;;15.55;10.85;;;12.40;99.90;;;;;;5097512;28;20477;-83
2022/04/13 01:23:06;;;;;;;19.90;11.15;;;12.30;99.90;;;;;;5083231;28;20239;-84
2022/04/13 01:25:31;;;;;;;17.35;11.52;;;12.30;99.90;;;;;;5112659;28;20059;-82
2022/04/13 01:27:57;;;;;;;15.23;10.95;;;12.30;99.90;;;;;;5106720;28;20040;-82
2022/04/13 01:30:24;;;;;;;17.35;11.98;;;12.30;99.90;;;;;;5105382;27;20083;-82
2022/04/13 01:32:53;;;;;;;22.55;13.65;;;12.30;99.90;;;;;;5094733;28;20040;-81
2022/04/13 01:35:19;;;;;;;15.20;11.75;;;12.30;99.90;;;;;;5096651;28;20040;-82
2022/04/13 01:37:44;;;;;;;15.93;12.60;;;12.30;99.90;;;;;;5113567;27;20040;-82
2022/04/13 01:40:11;;;;;;;20.08;12.52;;;12.30;99.90;;;;;;5117425;28;20399;-82
2022/04/13 01:42:37;;;;;;;13.57;10.73;;;12.20;99.90;;;;;;5091469;28;20136;-82
2022/04/13 01:45:04;;;;;;;20.40;13.60;;;12.20;99.90;;;;;;5099456;28;20074;-81
2022/04/13 01:47:29;;;;;;;21.13;14.65;;;12.20;99.90;;;;;;5093241;28;20051;-81
2022/04/13 01:49:56;;;;;;;16.83;11.77;;;12.30;99.90;;;;;;5095343;28;20046;-82
2022/04/13 01:52:21;;;;;;;15.18;11.18;;;12.30;99.90;;;;;;5105134;28;20516;-83
2022/04/13 01:54:47;;;;;;;18.52;12.38;;;12.30;99.90;;;;;;5096507;28;20047;-82
2022/04/13 01:57:13;;;;;;;20.38;13.00;;;12.20;99.90;;;;;;5097255;27;20116;-82
2022/04/13 01:59:39;;;;;;;16.23;11.20;;;12.30;99.90;;;;;;5106047;28;20498;-81
2022/04/13 02:02:05;;;;;;;22.35;13.00;;;12.30;99.90;;;;;;5101312;28;20142;-83
2022/04/13 02:04:31;;;;;;;21.30;12.35;;;12.20;99.90;;;;;;5102802;28;20039;-81
2022/04/13 02:06:57;;;;;;;20.83;13.38;;;12.20;99.90;;;;;;5110063;28;20078;-81
2022/04/13 02:09:23;;;;;;;26.08;15.07;;;12.20;99.90;;;;;;5110644;28;20080;-82
2022/04/13 02:11:49;;;;;;;19.40;13.18;;;12.20;99.90;;;;;;5105340;28;20173;-82
2022/04/13 02:14:14;;;;;;;23.35;13.18;;;12.10;99.90;;;;;;5104506;28;20035;-82
2022/04/13 02:16:40;;;;;;;22.52;14.77;;;12.10;99.90;;;;;;5103438;28;20107;-83
2022/04/13 02:19:07;;;;;;;21.65;12.65;;;12.00;99.90;;;;;;5101685;28;20049;-82
2022/04/13 02:21:33;;;;;;;17.92;13.75;;;12.10;99.90;;;;;;5091555;28;20148;-82
2022/04/13 02:23:59;;;;;;;18.15;13.52;;;12.00;99.90;;;;;;5102374;28;20040;-84
2022/04/13 02:26:25;;;;;;;18.08;14.25;;;12.00;99.90;;;;;;5104665;28;20050;-83
2022/04/13 02:28:53;;;;;;;24.60;16.08;;;12.00;99.90;;;;;;5109170;27;20047;-83
2022/04/13 02:31:18;;;;;;;19.85;13.85;;;12.00;99.90;;;;;;5121068;27;20050;-83
2022/04/13 02:33:44;;;;;;;17.27;13.95;;;12.00;99.90;;;;;;5107616;27;20043;-82
2022/04/13 02:36:10;;;;;;;18.40;13.13;;;12.00;99.90;;;;;;5095523;28;20041;-83
2022/04/13 02:38:36;;;;;;;19.95;13.27;;;12.00;99.90;;;;;;5092722;28;20047;-81
2022/04/13 02:41:02;;;;;;;30.17;14.60;;;12.00;99.90;;;;;;5095110;28;20044;-82
2022/04/13 02:43:28;;;;;;;26.52;14.10;;;12.00;99.90;;;;;;5088694;28;20043;-82
2022/04/13 02:45:54;;;;;;;23.60;14.68;;;12.10;99.90;;;;;;5089231;28;20040;-83
2022/04/13 02:48:20;;;;;;;21.52;13.85;;;12.00;99.90;;;;;;5097742;28;20085;-82
2022/04/13 02:50:46;;;;;;;22.02;15.48;;;12.00;99.90;;;;;;5104044;28;20070;-81
2022/04/13 02:53:11;;;;;;;25.73;13.82;;;12.00;99.90;;;;;;5105697;28;20072;-83
2022/04/13 02:55:37;;;;;;;22.25;14.40;;;12.00;99.90;;;;;;5105904;28;20036;-82
2022/04/13 02:58:02;;;;;;;20.70;12.65;;;12.00;99.90;;;;;;5112516;27;20466;-82
2022/04/13 03:00:29;;;;;;;23.27;14.80;;;12.00;99.90;;;;;;5103502;27;20051;-82
2022/04/13 03:02:55;;;;;;;23.05;15.27;;;12.00;99.90;;;;;;5093519;28;20067;-82
2022/04/13 03:05:20;;;;;;;21.58;13.00;;;11.90;99.90;;;;;;5109161;27;20051;-81
2022/04/13 03:07:46;;;;;;;23.40;16.23;;;11.80;99.90;;;;;;5083666;28;20043;-83
2022/04/13 03:10:12;;;;;;;24.67;12.05;;;11.80;99.90;;;;;;5104363;28;20044;-82
2022/04/13 03:12:37;;;;;;;17.92;13.43;;;11.70;99.90;;;;;;5106632;28;20044;-83
2022/04/13 03:15:07;;;;;;;23.52;14.70;;;11.80;99.90;;;;;;5108670;28;20533;-82
2022/04/13 03:17:33;;;;;;;20.40;15.05;;;11.70;99.90;;;;;;5099630;28;20068;-83
2022/04/13 03:19:58;;;;;;;27.35;16.30;;;11.70;99.90;;;;;;5112377;28;20093;-83
2022/04/13 03:22:24;;;;;;;22.25;14.32;;;11.60;99.90;;;;;;5102705;28;20040;-83
2022/04/13 03:24:51;;;;;;;21.45;14.45;;;11.50;99.90;;;;;;5121011;27;20392;-83
2022/04/13 03:27:17;;;;;;;18.90;14.07;;;11.50;99.90;;;;;;5107412;28;20112;-83
2022/04/13 03:29:43;;;;;;;22.92;15.57;;;11.50;99.90;;;;;;5108894;27;20047;-83
2022/04/13 03:32:09;;;;;;;21.73;15.10;;;11.50;99.90;;;;;;5108847;28;20378;-78
2022/04/13 03:34:35;;;;;;;21.75;14.70;;;11.40;99.90;;;;;;5108570;28;20467;-83
2022/04/13 03:37:00;;;;;;;24.67;14.48;;;11.40;99.90;;;;;;5084694;28;20055;-83
2022/04/13 03:39:27;;;;;;;18.88;13.65;;;11.40;99.90;;;;;;5112908;27;20054;-83
2022/04/13 03:41:53;;;;;;;25.58;15.57;;;11.40;99.90;;;;;;5115498;27;20485;-84
2022/04/13 03:44:19;;;;;;;19.25;14.60;;;11.40;99.90;;;;;;5109828;27;20036;-82
2022/04/13 03:46:44;;;;;;;26.17;16.67;;;11.40;99.90;;;;;;5098064;27;20036;-82
2022/04/13 03:49:10;;;;;;;25.63;13.65;;;11.40;99.90;;;;;;5115863;27;20092;-81
2022/04/13 03:51:36;;;;;;;18.67;13.32;;;11.40;99.90;;;;;;5116559;28;20070;-83
2022/04/13 03:54:02;;;;;;;18.20;13.85;;;11.40;99.90;;;;;;5104973;27;20032;-83
2022/04/13 03:56:29;;;;;;;21.33;13.15;;;11.30;99.90;;;;;;5100825;27;20127;-82
2022/04/13 03:58:58;;;;;;;23.80;15.85;;;11.40;99.90;;;;;;5110186;28;20039;-81
2022/04/13 04:01:24;;;;;;;23.50;14.13;;;11.30;99.90;;;;;;5099186;28;20514;-81
2022/04/13 04:03:49;;;;;;;21.38;15.02;;;11.30;99.90;;;;;;5114600;27;20130;-82
2022/04/13 04:06:15;;;;;;;23.73;15.02;;;11.30;99.90;;;;;;5116579;27;20096;-81
2022/04/13 04:08:40;;;;;;;21.08;14.48;;;11.30;99.90;;;;;;5100309;27;20044;-80
2022/04/13 04:11:06;;;;;;;19.38;14.13;;;11.30;99.90;;;;;;5099064;27;20043;-81
2022/04/13 04:13:32;;;;;;;23.38;14.77;;;11.20;99.90;;;;;;5120994;28;20123;-82
2022/04/13 04:15:59;;;;;;;21.33;15.32;;;11.30;99.90;;;;;;5106792;27;20040;-81
2022/04/13 04:18:25;;;;;;;30.38;15.85;;;11.30;99.90;;;;;;5114022;28;20036;-80
2022/04/13 04:20:50;;;;;;;25.50;16.65;;;11.30;99.90;;;;;;5116867;27;20115;-80
2022/04/13 04:23:16;;;;;;;27.02;15.95;;;11.30;99.90;;;;;;5123614;27;20043;-80
2022/04/13 04:25:42;;;;;;;23.38;14.82;;;11.30;99.90;;;;;;5122987;27;20047;-80
2022/04/13 04:28:10;;;;;;;28.23;16.08;;;11.30;99.90;;;;;;5083455;28;20055;-82
2022/04/13 04:30:40;;;;;;;24.40;16.00;;;11.30;99.90;;;;;;5110130;27;20118;-80
2022/04/13 04:33:06;;;;;;;30.93;18.27;;;11.30;99.90;;;;;;5143658;27;20083;-83
2022/04/13 04:35:33;;;;;;;26.25;17.95;;;11.20;99.90;;;;;;5145717;27;20078;-80
2022/04/13 04:37:59;;;;;;;25.88;16.45;;;11.30;99.90;;;;;;5125343;27;20054;-79
2022/04/13 04:40:26;;;;;;;27.65;17.92;;;11.30;99.90;;;;;;5124304;27;20066;-81
2022/04/13 04:42:51;;;;;;;29.88;17.80;;;11.30;99.90;;;;;;5123807;27;20476;-82
2022/04/13 04:45:19;;;;;;;24.38;16.67;;;11.30;99.90;;;;;;5099894;27;20059;-81
2022/04/13 04:47:50;;;;;;;31.42;19.70;;;11.30;99.90;;;;;;5112999;28;20059;-82
2022/04/13 04:50:21;;;;;;;28.27;17.75;;;11.40;99.90;;;;;;5108784;28;20492;-80
2022/04/13 04:52:47;;;;;;;22.55;16.05;;;11.30;99.90;;;;;;5108807;28;20044;-81
2022/04/13 04:55:16;;;;;;;34.83;20.30;;;11.30;99.90;;;;;;5090144;28;20055;-79
2022/04/13 04:57:42;;;;;;;28.10;18.58;;;11.30;99.90;;;;;;5116469;27;20125;-80
2022/04/13 05:00:11;;;;;;;34.17;20.50;;;11.40;99.90;;;;;;5110047;28;20036;-80
2022/04/13 05:02:37;;;;;;;37.60;17.58;;;11.30;99.90;;;;;;5113553;27;20044;-80
2022/04/13 05:05:04;;;;;;;26.92;17.95;;;11.30;99.90;;;;;;5099043;28;20043;-85
2022/04/13 05:07:30;;;;;;;25.67;18.05;;;11.40;99.90;;;;;;5094795;27;20039;-83
2022/04/13 05:09:56;;;;;;;31.85;19.38;;;11.40;99.90;;;;;;5101117;28;20427;-86
2022/04/13 05:12:21;;;;;;;29.45;20.80;;;11.40;99.90;;;;;;5112235;27;20168;-75
2022/04/13 05:14:47;;;;;;;33.45;20.20;;;11.40;99.90;;;;;;5105529;27;20072;-78
2022/04/13 05:17:14;;;;;;;27.98;17.13;;;11.30;99.90;;;;;;5077702;28;20039;-82
2022/04/13 05:19:39;;;;;;;26.92;20.90;;;11.30;99.90;;;;;;5102754;28;20417;-81
2022/04/13 05:22:05;;;;;;;27.17;19.90;;;11.30;99.90;;;;;;5109312;27;20027;-82
2022/04/13 05:24:31;;;;;;;26.92;19.73;;;11.20;99.90;;;;;;5099407;28;20040;-84
2022/04/13 05:26:57;;;;;;;30.85;20.33;;;11.20;99.90;;;;;;5118200;27;20040;-86
2022/04/13 05:29:22;;;;;;;29.75;19.83;;;11.30;99.90;;;;;;5117872;27;20057;-84
2022/04/13 05:31:48;;;;;;;26.08;20.45;;;11.30;99.90;;;;;;5108074;28;20128;-84
2022/04/13 05:34:13;;;;;;;25.45;19.60;;;11.40;99.90;;;;;;5097888;28;20043;-85
2022/04/13 05:36:39;;;;;;;24.52;19.27;;;11.40;99.90;;;;;;5121095;27;20358;-83
2022/04/13 05:39:05;;;;;;;28.92;18.45;;;11.50;99.90;;;;;;5080521;28;20100;-83
2022/04/13 05:41:30;;;;;;;27.15;19.75;;;11.50;99.90;;;;;;5095745;28;20146;-86
2022/04/13 05:43:56;;;;;;;30.90;18.20;;;11.60;99.90;;;;;;5096210;27;20443;-86
2022/04/13 05:46:22;;;;;;;24.63;17.23;;;11.70;99.90;;;;;;5099857;27;20093;-84
2022/04/13 05:48:47;;;;;;;27.80;17.58;;;11.80;99.90;;;;;;5106052;28;20043;-84
2022/04/13 05:51:13;;;;;;;25.35;17.10;;;11.80;99.90;;;;;;5104172;27;20040;-86
2022/04/13 05:53:38;;;;;;;26.77;17.85;;;11.90;99.90;;;;;;5108298;28;20082;-80
2022/04/13 05:56:05;;;;;;;25.85;16.23;;;11.90;99.90;;;;;;5110618;27;20038;-85
2022/04/13 05:58:31;;;;;;;26.17;18.17;;;12.00;99.90;;;;;;5108832;27;20050;-85
2022/04/13 06:00:57;;;;;;;28.95;18.85;;;12.20;99.90;;;;;;5098252;28;20040;-85
2022/04/13 06:03:23;;;;;;;35.50;18.73;;;12.30;99.90;;;;;;5101654;28;20120;-83
2022/04/13 06:05:50;;;;;;;32.90;17.27;;;12.30;99.90;;;;;;5108790;28;20071;-84
2022/04/13 06:08:17;;;;;;;23.55;18.48;;;12.40;99.90;;;;;;5090774;28;20044;-85
2022/04/13 06:10:42;;;;;;;25.48;17.52;;;12.50;99.90;;;;;;5097582;28;20523;-83
2022/04/13 06:13:08;;;;;;;27.13;17.40;;;12.50;99.90;;;;;;5109887;28;20044;-86
2022/04/13 06:15:34;;;;;;;28.80;16.92;;;12.50;99.90;;;;;;5104335;28;20096;-84
2022/04/13 06:18:00;;;;;;;30.05;19.38;;;12.50;99.90;;;;;;5106845;28;20028;-85
2022/04/13 06:20:26;;;;;;;27.48;19.00;;;12.60;99.90;;;;;;5109861;28;20098;-85
2022/04/13 06:22:52;;;;;;;26.48;18.15;;;12.50;99.90;;;;;;5111071;28;20136;-85
2022/04/13 06:25:18;;;;;;;31.08;17.92;;;12.50;99.90;;;;;;5105874;28;20052;-84
2022/04/13 06:27:44;;;;;;;25.02;16.25;;;12.60;99.90;;;;;;5098455;28;20050;-84
2022/04/13 06:30:12;;;;;;;26.92;16.85;;;12.50;99.90;;;;;;5098597;28;20043;-85
2022/04/13 06:32:43;;;;;;;20.33;15.43;;;12.60;99.90;;;;;;5116185;28;20086;-85
2022/04/13 06:35:12;;;;;;;26.70;18.45;;;12.60;99.90;;;;;;5097426;28;20054;-77
2022/04/13 06:37:42;;;;;;;29.38;17.48;;;12.70;99.90;;;;;;5110714;28;20051;-86
2022/04/13 06:40:08;;;;;;;;;;;12.70;99.90;;;;;;5113351;28;20043;-85
2022/04/13 06:42:37;;;;;;;19.90;15.65;;;12.70;99.90;;;;;;5124668;28;19903;-82
2022/04/13 06:45:04;;;;;;;24.58;16.65;;;12.80;99.90;;;;;;5132085;28;20085;-84
2022/04/13 06:47:30;;;;;;;28.50;17.52;;;12.90;99.90;;;;;;5131489;28;20091;-84
2022/04/13 06:49:56;;;;;;;22.77;15.85;;;12.90;99.90;;;;;;5129641;28;20039;-85
2022/04/13 06:52:21;;;;;;;22.15;15.98;;;13.10;99.90;;;;;;5107905;28;20161;-84
2022/04/13 06:54:47;;;;;;;21.25;16.45;;;13.00;99.90;;;;;;5095966;28;20043;-86
2022/04/13 06:57:13;;;;;;;31.48;18.55;;;13.10;99.90;;;;;;5109508;28;20386;-84
2022/04/13 06:59:39;;;;;;;28.50;17.45;;;13.10;99.90;;;;;;5097053;28;20048;-82
2022/04/13 07:02:10;;;;;;;27.15;15.77;;;13.20;99.90;;;;;;5111134;28;20131;-83
2022/04/13 07:04:39;;;;;;;22.13;15.43;;;13.30;99.90;;;;;;5105429;27;20130;-85
2022/04/13 07:07:05;;;;;;;23.17;13.45;;;13.50;99.90;;;;;;5090019;28;20122;-84
2022/04/13 07:09:30;;;;;;;24.58;15.27;;;13.60;99.90;;;;;;5099423;28;20091;-83
2022/04/13 07:11:56;;;;;;;20.63;14.48;;;13.70;99.90;;;;;;5093200;27;20458;-84
2022/04/13 07:14:22;;;;;;;32.38;15.52;;;13.70;99.90;;;;;;5090632;28;20509;-84
2022/04/13 07:16:47;;;;;;;25.20;13.90;;;13.70;99.90;;;;;;5098129;27;20040;-82
2022/04/13 07:19:13;;;;;;;13.68;11.68;;;13.80;99.90;;;;;;5102388;28;20036;-80
2022/04/13 07:21:38;;;;;;;16.95;12.05;;;13.60;99.90;;;;;;5084063;28;20051;-79
2022/04/13 07:24:05;;;;;;;20.10;14.23;;;13.70;99.90;;;;;;5108489;28;20101;-83
2022/04/13 07:26:30;;;;;;;22.52;12.20;;;13.70;99.90;;;;;;5099993;28;20097;-83
2022/04/13 07:28:56;;;;;;;23.00;13.70;;;13.90;99.90;;;;;;5106211;28;20895;-84
2022/04/13 07:31:22;;;;;;;18.90;13.25;;;13.90;99.90;;;;;;5091410;28;20048;-80
2022/04/13 07:33:47;;;;;;;19.75;13.57;;;13.80;99.90;;;;;;5090994;28;20493;-78
2022/04/13 07:36:13;;;;;;;27.73;14.07;;;13.90;99.90;;;;;;5098059;28;20937;-78
2022/04/13 07:38:38;;;;;;;23.80;12.45;;;13.90;99.90;;;;;;5088026;28;20067;-80
2022/04/13 07:41:04;;;;;;;19.92;12.55;;;13.90;99.90;;;;;;5091406;28;20471;-81
2022/04/13 07:43:31;;;;;;;15.90;10.95;;;14.00;99.90;;;;;;5096758;28;20066;-80
2022/04/13 07:45:56;;;;;;;18.58;12.27;;;14.10;99.90;;;;;;5102413;28;20088;-81
2022/04/13 07:48:22;;;;;;;17.48;12.07;;;14.10;99.90;;;;;;5102205;28;20044;-80
2022/04/13 07:50:48;;;;;;;16.33;11.73;;;14.10;99.90;;;;;;5095092;28;20043;-81
2022/04/13 07:53:14;;;;;;;13.40;10.57;;;14.20;99.90;;;;;;5108090;27;20377;-81
2022/04/13 07:55:40;;;;;;;23.40;12.40;;;14.20;99.90;;;;;;5085318;28;20104;-79
2022/04/13 07:58:06;;;;;;;22.45;11.68;;;14.40;99.90;;;;;;5105362;28;20032;-78
2022/04/13 08:00:33;;;;;;;14.98;11.10;;;14.70;99.90;;;;;;5107753;28;20054;-82
2022/04/13 08:02:58;;;;;;;17.45;10.23;;;14.80;99.90;;;;;;5087552;28;20036;-83
2022/04/13 08:05:24;;;;;;;18.35;11.77;;;14.80;99.90;;;;;;5089251;28;20047;-81
2022/04/13 08:07:50;;;;;;;17.42;10.02;;;14.70;99.90;;;;;;5078068;28;20040;-85
2022/04/13 08:10:16;;;;;;;16.02;9.20;;;14.90;99.90;;;;;;5073647;28;20040;-84
2022/04/13 08:12:46;;;;;;;19.85;9.75;;;15.10;99.90;;;;;;5092143;28;20497;-84
2022/04/13 08:15:13;;;;;;;17.48;8.82;;;15.50;99.90;;;;;;5089470;28;20110;-84
2022/04/13 08:17:39;;;;;;;17.08;8.10;;;15.50;99.90;;;;;;5090532;28;20055;-79
2022/04/13 08:20:07;;;;;;;14.82;8.18;;;15.70;99.90;;;;;;5091416;28;20419;-84
2022/04/13 08:22:33;;;;;;;16.88;8.73;;;15.90;99.90;;;;;;5123610;27;20115;-83
2022/04/13 08:24:59;;;;;;;21.67;8.88;;;15.90;99.90;;;;;;5103505;27;20055;-81
2022/04/13 08:27:25;;;;;;;12.38;8.02;;;16.00;99.90;;;;;;5102366;27;20077;-83
2022/04/13 08:29:50;;;;;;;13.35;7.70;;;16.00;99.90;;;;;;5097471;28;20047;-83
2022/04/13 08:32:19;;;;;;;17.27;8.60;;;16.10;99.90;;;;;;5122826;27;20035;-82
2022/04/13 08:34:46;;;;;;;13.98;7.40;;;15.90;99.90;;;;;;5134069;27;20039;-84
2022/04/13 08:37:12;;;;;;;16.70;8.57;;;15.50;99.90;;;;;;5110935;27;20040;-80
2022/04/13 08:39:39;;;;;;;22.88;8.77;;;15.40;99.90;;;;;;5094032;28;20028;-84
2022/04/13 08:42:13;;;;;;;19.55;8.77;;;15.30;99.90;;;;;;5094646;28;20040;-87
2022/04/13 08:44:51;;;;;;;13.35;8.65;;;15.70;99.90;;;;;;5092093;28;20074;-82
2022/04/13 08:47:21;;;;;;;17.95;9.43;;;15.70;99.90;;;;;;5109406;27;20055;-86
2022/04/13 08:49:51;;;;;;;17.92;10.15;;;15.70;99.90;;;;;;5099044;28;20075;-83
2022/04/13 08:52:26;;;;;;;20.83;10.43;;;15.30;99.90;;;;;;5102767;28;20043;-85
2022/04/13 08:55:09;;;;;;;14.88;10.20;;;15.30;99.90;;;;;;5097972;28;20035;-84
2022/04/13 08:57:41;;;;;;;15.25;9.57;;;15.40;99.90;;;;;;5104040;27;20044;-81
2022/04/13 09:00:13;;;;;;;13.65;10.45;;;15.60;99.90;;;;;;5102238;27;21567;-84
2022/04/13 09:02:55;;;;;;;12.18;9.18;;;15.60;99.90;;;;;;5106496;28;20071;-83
2022/04/13 09:05:25;;;;;;;19.85;11.13;;;15.60;99.90;;;;;;5114952;27;20839;-85
2022/04/13 09:08:02;;;;;;;14.82;9.57;;;15.60;99.90;;;;;;5113706;27;20490;-85
2022/04/13 09:10:29;;;;;;;14.02;7.72;;;15.80;99.90;;;;;;5095692;28;20066;-85
2022/04/13 09:12:56;;;;;;;18.05;8.65;;;15.80;99.90;;;;;;5075683;28;20068;-82
2022/04/13 09:15:23;;;;;;;15.38;8.05;;;15.80;99.90;;;;;;5096822;28;20096;-85
2022/04/13 09:17:50;;;;;;;14.30;9.15;;;15.80;99.90;;;;;;5099988;27;20131;-87
2022/04/13 09:20:16;;;;;;;16.60;10.35;;;16.00;99.90;;;;;;5107947;27;20075;-86
2022/04/13 09:22:42;;;;;;;19.20;11.23;;;16.10;99.90;;;;;;5086112;28;20608;-86
2022/04/13 09:25:09;;;;;;;20.23;11.20;;;16.20;99.90;;;;;;5094465;28;20127;-85
2022/04/13 09:27:36;;;;;;;20.83;10.07;;;16.00;99.90;;;;;;5094071;27;20051;-85
2022/04/13 09:30:05;;;;;;;14.50;8.70;;;16.20;99.90;;;;;;5090779;27;20055;-85
2022/04/13 09:32:31;;;;;;;18.85;9.07;;;16.30;99.90;;;;;;5091684;27;20123;-84
2022/04/13 09:34:57;;;;;;;16.73;8.68;;;16.60;99.90;;;;;;5112396;27;20529;-85
2022/04/13 09:37:24;;;;;;;15.27;8.45;;;16.70;99.90;;;;;;5110756;28;20169;-83
2022/04/13 09:39:50;;;;;;;12.65;8.85;;;16.50;99.90;;;;;;5112335;28;20505;-86
2022/04/13 09:42:15;;;;;;;15.35;8.68;;;16.70;99.90;;;;;;5109987;28;20050;-85
2022/04/13 09:44:41;;;;;;;13.45;8.15;;;16.50;99.90;;;;;;5105359;28;20040;-84
2022/04/13 09:47:12;;;;;;;16.48;9.40;;;16.70;99.90;;;;;;5094177;27;20047;-85
2022/04/13 09:49:56;;;;;;;;;;;16.90;99.90;;;;;;5107355;28;20092;-86
2022/04/13 09:52:46;;;;;;;11.02;7.38;;;16.90;99.90;;;;;;5100090;27;19919;-85
2022/04/13 09:55:12;;;;;;;11.27;7.00;;;17.10;99.90;;;;;;5097767;28;20502;-84
2022/04/13 09:57:37;;;;;;;14.07;8.57;;;17.00;99.90;;;;;;5090237;28;20075;-85
2022/04/13 10:00:06;;;;;;;14.75;8.30;;;17.10;99.90;;;;;;5093585;27;20391;-85
2022/04/13 10:02:40;;;;;;;15.68;8.93;;;17.20;99.90;;;;;;5092600;28;20044;-83
2022/04/13 10:05:07;;;;;;;13.68;7.47;;;17.20;99.90;;;;;;5108339;28;20047;-83
2022/04/13 10:07:34;;;;;;;14.60;8.00;;;16.90;99.90;;;;;;5091981;28;20074;-85
2022/04/13 10:10:00;;;;;;;14.20;7.22;;;16.90;99.90;;;;;;5092733;27;20087;-85
2022/04/13 10:12:26;;;;;;;10.18;6.40;;;17.10;99.90;;;;;;5090446;28;20076;-84
2022/04/13 10:14:52;;;;;;;14.80;8.32;;;17.20;99.90;;;;;;5092980;28;20139;-85
2022/04/13 10:17:20;;;;;;;29.13;8.27;;;17.40;99.90;;;;;;5103527;28;20043;-85
2022/04/13 10:19:57;;;;;;;18.77;6.85;;;17.30;99.90;;;;;;5089551;28;20048;-84
2022/04/13 10:22:23;;;;;;;14.80;8.10;;;17.40;99.90;;;;;;5113669;27;20476;-86
2022/04/13 10:24:48;;;;;;;12.68;7.45;;;17.20;99.90;;;;;;5104944;28;20075;-85
2022/04/13 10:27:18;;;;;;;12.60;6.63;;;17.20;99.90;;;;;;5090689;28;20474;-83
2022/04/13 10:29:48;;;;;;;10.10;6.47;;;17.30;99.90;;;;;;5106196;28;20038;-86
2022/04/13 10:32:15;;;;;;;15.00;7.50;;;17.30;99.90;;;;;;5114791;27;20074;-83
2022/04/13 10:34:42;;;;;;;21.83;8.90;;;17.20;99.90;;;;;;5093325;28;20051;-83
2022/04/13 10:37:11;;;;;;;10.20;5.45;;;17.20;99.90;;;;;;5106346;27;20077;-85
2022/04/13 10:39:37;;;;;;;11.82;5.55;;;17.40;99.90;;;;;;5109320;28;20552;-85
2022/04/13 10:42:04;;;;;;;14.38;5.65;;;17.50;99.90;;;;;;5112289;28;20039;-82
2022/04/13 10:44:35;;;;;;;8.82;4.88;;;17.40;99.90;;;;;;5098516;28;20407;-83
2022/04/13 10:47:05;;;;;;;11.02;6.97;;;17.40;99.90;;;;;;5112285;28;20501;-84
2022/04/13 10:49:43;;;;;;;12.70;8.40;;;17.50;99.90;;;;;;5106130;28;20443;-85
2022/04/13 10:52:16;;;;;;;14.52;5.93;;;17.50;99.90;;;;;;5090219;27;20036;-85
2022/04/13 10:54:48;;;;;;;15.90;8.98;;;17.70;99.90;;;;;;5102714;28;20123;-84
2022/04/13 10:57:17;;;;;;;15.75;9.70;;;17.50;99.90;;;;;;5112237;27;20051;-85
2022/04/13 10:59:50;;;;;;;15.05;8.15;;;17.30;99.90;;;;;;5107861;28;20505;-84
2022/04/13 11:02:28;;;;;;;13.73;8.38;;;17.20;99.90;;;;;;5089736;28;20398;-84
2022/04/13 11:04:56;;;;;;;13.85;7.70;;;17.10;99.90;;;;;;5096248;28;20046;-86
2022/04/13 11:07:24;;;;;;;16.10;7.90;;;17.00;99.90;;;;;;5098522;28;20059;-82
2022/04/13 11:09:56;;;;;;;11.90;7.35;;;17.00;99.90;;;;;;5114466;27;20039;-85
2022/04/13 11:12:23;;;;;;;15.63;8.55;;;16.80;99.90;;;;;;5094445;27;20052;-84
2022/04/13 11:14:54;;;;;;;14.93;7.13;;;16.70;99.90;;;;;;5107745;28;20039;-83
2022/04/13 11:17:19;;;;;;;12.82;5.50;;;16.70;99.90;;;;;;5108466;28;20096;-84
2022/04/13 11:19:47;;;;;;;9.52;5.25;;;16.90;99.90;;;;;;5088742;28;20048;-86
2022/04/13 11:22:16;;;;;;;12.18;5.78;;;16.90;99.90;;;;;;5111233;27;20682;-84
2022/04/13 11:24:54;;;;;;;14.25;7.30;;;16.80;99.90;;;;;;5089030;28;20087;-84
2022/04/13 11:27:20;;;;;;;14.65;6.60;;;16.70;99.90;;;;;;5078252;28;20039;-84
2022/04/13 11:29:59;;;;;;;10.90;5.30;;;16.60;99.90;;;;;;5086343;28;20032;-84
2022/04/13 11:32:28;;;;;;;11.73;5.85;;;16.40;99.90;;;;;;5087466;28;20061;-86
2022/04/13 11:34:54;;;;;;;13.17;5.97;;;16.50;99.90;;;;;;5095066;28;20039;-85
2022/04/13 11:37:23;;;;;;;21.10;7.03;;;16.40;99.90;;;;;;5097402;28;20044;-85
2022/04/13 11:39:55;;;;;;;18.52;6.80;;;16.50;99.90;;;;;;5090742;28;20040;-86
2022/04/13 11:42:26;;;;;;;13.60;6.50;;;16.50;99.90;;;;;;5109355;28;20054;-85
2022/04/13 11:45:06;;;;;;;10.45;5.28;;;16.50;99.90;;;;;;5090335;28;20032;-83
2022/04/13 11:47:39;;;;;;;12.20;6.20;;;16.30;99.90;;;;;;5088850;28;20050;-86
2022/04/13 11:50:18;;;;;;;15.10;6.38;;;16.30;99.90;;;;;;5090416;28;20490;-82
2022/04/13 11:52:48;;;;;;;16.63;5.80;;;16.20;99.90;;;;;;5103620;28;20040;-84
2022/04/13 11:55:25;;;;;;;11.13;5.70;;;16.00;99.90;;;;;;5098112;28;20107;-83
2022/04/13 11:58:20;;;;;;;13.73;5.20;;;15.90;99.90;;;;;;5110777;28;20375;-85
2022/04/13 12:01:07;;;;;;;14.45;5.85;;;16.20;99.90;;;;;;5113910;28;20039;-84
2022/04/13 12:03:38;;;;;;;14.23;5.68;;;16.30;99.90;;;;;;5108372;28;20038;-86
2022/04/13 12:06:14;;;;;;;17.35;7.00;;;16.40;99.90;;;;;;5123326;28;20132;-84
2022/04/13 12:08:50;;;;;;;19.77;5.88;;;15.90;99.90;;;;;;5096883;28;20420;-84
2022/04/13 12:11:20;;;;;;;14.10;6.13;;;16.00;99.90;;;;;;5118660;28;20047;-85
2022/04/13 12:13:52;;;;;;;17.25;6.03;;;15.90;99.90;;;;;;5128336;27;20489;-85
2022/04/13 12:16:26;;;;;;;16.13;6.65;;;15.90;99.90;;;;;;5136919;27;20065;-85
2022/04/13 12:18:54;;;;;;;8.60;5.90;;;15.90;99.90;;;;;;5131378;27;20120;-84
2022/04/13 12:21:22;;;;;;;11.40;5.10;;;15.90;99.90;;;;;;5109313;27;20043;-86
2022/04/13 12:23:51;;;;;;;22.23;6.93;;;15.90;99.90;;;;;;5112684;27;20055;-86
2022/04/13 12:26:28;;;;;;;14.80;5.90;;;15.70;99.90;;;;;;5113638;27;20047;-85
2022/04/13 12:28:56;;;;;;;15.25;8.60;;;15.70;99.90;;;;;;5091256;28;20039;-85
2022/04/13 12:31:21;;;;;;;11.63;5.25;;;15.70;99.90;;;;;;5109619;27;20047;-84
2022/04/13 12:33:47;;;;;;;14.38;6.53;;;15.70;99.90;;;;;;5115200;28;20099;-84
2022/04/13 12:36:16;;;;;;;13.82;6.40;;;15.80;99.90;;;;;;5113079;27;20410;-85